sensor_id;sensor_type;location;lat;lon;timestamp;P1;durP1;ratioP1;P2;durP2;ratioP2
12689;SDS011;6409;56.294;14.480;2023-12-20T00:01:42;4.60;;;4.40;;
12689;SDS011;6409;56.294;14.480;2023-12-20T00:04:09;4.50;;;4.30;;
12689;SDS011;6409;56.294;14.480;2023-12-20T00:06:36;4.37;;;4.20;;
12689;SDS011;6409;56.294;14.480;2023-12-20T00:09:03;4.30;;;4.10;;
12689;SDS011;6409;56.294;14.480;2023-12-20T00:11:30;3.90;;;3.80;;
12689;SDS011;6409;56.294;14.480;2023-12-20T00:13:59;4.30;;;4.10;;
12689;SDS011;6409;56.294;14.480;2023-12-20T00:16:26;4.77;;;4.57;;
12689;SDS011;6409;56.294;14.480;2023-12-20T00:18:53;5.00;;;4.80;;
12689;SDS011;6409;56.294;14.480;2023-12-20T00:21:20;4.77;;;4.57;;
12689;SDS011;6409;56.294;14.480;2023-12-20T00:23:47;5.20;;;5.00;;
12689;SDS011;6409;56.294;14.480;2023-12-20T00:26:14;4.90;;;4.70;;
12689;SDS011;6409;56.294;14.480;2023-12-20T00:28:42;5.00;;;4.80;;
12689;SDS011;6409;56.294;14.480;2023-12-20T00:31:10;5.00;;;4.80;;
12689;SDS011;6409;56.294;14.480;2023-12-20T00:33:37;4.90;;;4.70;;
12689;SDS011;6409;56.294;14.480;2023-12-20T00:36:08;4.73;;;4.53;;
12689;SDS011;6409;56.294;14.480;2023-12-20T00:38:35;4.70;;;4.50;;
12689;SDS011;6409;56.294;14.480;2023-12-20T00:41:03;4.73;;;4.53;;
12689;SDS011;6409;56.294;14.480;2023-12-20T00:43:30;4.90;;;4.70;;
12689;SDS011;6409;56.294;14.480;2023-12-20T00:45:57;4.77;;;4.57;;
12689;SDS011;6409;56.294;14.480;2023-12-20T00:48:26;4.60;;;4.40;;
12689;SDS011;6409;56.294;14.480;2023-12-20T00:50:55;4.87;;;4.57;;
12689;SDS011;6409;56.294;14.480;2023-12-20T00:53:22;4.13;;;3.93;;
12689;SDS011;6409;56.294;14.480;2023-12-20T00:55:49;4.50;;;4.30;;
12689;SDS011;6409;56.294;14.480;2023-12-20T00:58:16;4.20;;;4.10;;
12689;SDS011;6409;56.294;14.480;2023-12-20T01:00:44;4.10;;;4.00;;
12689;SDS011;6409;56.294;14.480;2023-12-20T01:03:11;4.10;;;4.00;;
12689;SDS011;6409;56.294;14.480;2023-12-20T01:05:41;3.90;;;3.80;;
12689;SDS011;6409;56.294;14.480;2023-12-20T01:08:08;4.20;;;4.10;;
12689;SDS011;6409;56.294;14.480;2023-12-20T01:10:35;4.50;;;4.30;;
12689;SDS011;6409;56.294;14.480;2023-12-20T01:13:02;4.20;;;4.10;;
12689;SDS011;6409;56.294;14.480;2023-12-20T01:15:30;4.50;;;4.30;;
12689;SDS011;6409;56.294;14.480;2023-12-20T01:17:57;4.20;;;4.00;;
12689;SDS011;6409;56.294;14.480;2023-12-20T01:20:24;4.23;;;4.03;;
12689;SDS011;6409;56.294;14.480;2023-12-20T01:22:53;4.40;;;4.20;;
12689;SDS011;6409;56.294;14.480;2023-12-20T01:25:20;4.30;;;4.10;;
12689;SDS011;6409;56.294;14.480;2023-12-20T01:27:47;4.43;;;4.23;;
12689;SDS011;6409;56.294;14.480;2023-12-20T01:30:14;5.47;;;5.17;;
12689;SDS011;6409;56.294;14.480;2023-12-20T01:32:41;4.70;;;4.50;;
12689;SDS011;6409;56.294;14.480;2023-12-20T01:35:09;4.20;;;4.10;;
12689;SDS011;6409;56.294;14.480;2023-12-20T01:37:37;4.70;;;4.50;;
12689;SDS011;6409;56.294;14.480;2023-12-20T01:40:06;5.57;;;5.27;;
12689;SDS011;6409;56.294;14.480;2023-12-20T01:42:34;4.20;;;4.10;;
12689;SDS011;6409;56.294;14.480;2023-12-20T01:45:01;4.80;;;4.60;;
12689;SDS011;6409;56.294;14.480;2023-12-20T01:47:29;4.90;;;4.70;;
12689;SDS011;6409;56.294;14.480;2023-12-20T01:49:56;5.50;;;5.30;;
12689;SDS011;6409;56.294;14.480;2023-12-20T01:52:23;5.20;;;5.00;;
12689;SDS011;6409;56.294;14.480;2023-12-20T01:54:52;5.30;;;5.10;;
12689;SDS011;6409;56.294;14.480;2023-12-20T01:57:23;5.23;;;5.03;;
12689;SDS011;6409;56.294;14.480;2023-12-20T01:59:50;5.53;;;5.30;;
12689;SDS011;6409;56.294;14.480;2023-12-20T02:02:17;5.70;;;5.50;;
12689;SDS011;6409;56.294;14.480;2023-12-20T02:04:45;6.10;;;5.77;;
12689;SDS011;6409;56.294;14.480;2023-12-20T02:07:12;6.10;;;5.80;;
12689;SDS011;6409;56.294;14.480;2023-12-20T02:09:39;6.30;;;6.00;;
12689;SDS011;6409;56.294;14.480;2023-12-20T02:12:07;6.23;;;5.93;;
12689;SDS011;6409;56.294;14.480;2023-12-20T02:14:35;5.33;;;5.10;;
12689;SDS011;6409;56.294;14.480;2023-12-20T02:17:03;4.87;;;4.67;;
12689;SDS011;6409;56.294;14.480;2023-12-20T02:19:30;5.27;;;5.07;;
12689;SDS011;6409;56.294;14.480;2023-12-20T02:22:08;5.10;;;4.90;;
12689;SDS011;6409;56.294;14.480;2023-12-20T02:24:36;5.03;;;4.83;;
12689;SDS011;6409;56.294;14.480;2023-12-20T02:27:03;5.10;;;4.90;;
12689;SDS011;6409;56.294;14.480;2023-12-20T02:29:32;5.50;;;5.30;;
12689;SDS011;6409;56.294;14.480;2023-12-20T02:31:59;5.70;;;5.50;;
12689;SDS011;6409;56.294;14.480;2023-12-20T02:34:26;5.30;;;5.00;;
12689;SDS011;6409;56.294;14.480;2023-12-20T02:36:53;5.00;;;4.80;;
12689;SDS011;6409;56.294;14.480;2023-12-20T02:39:22;4.90;;;4.70;;
12689;SDS011;6409;56.294;14.480;2023-12-20T02:41:49;4.80;;;4.60;;
12689;SDS011;6409;56.294;14.480;2023-12-20T02:44:16;5.10;;;4.90;;
12689;SDS011;6409;56.294;14.480;2023-12-20T02:46:43;5.10;;;4.90;;
12689;SDS011;6409;56.294;14.480;2023-12-20T02:49:10;5.00;;;4.80;;
12689;SDS011;6409;56.294;14.480;2023-12-20T02:51:38;4.90;;;4.70;;
12689;SDS011;6409;56.294;14.480;2023-12-20T02:54:05;5.13;;;4.83;;
12689;SDS011;6409;56.294;14.480;2023-12-20T02:56:33;4.80;;;4.60;;
12689;SDS011;6409;56.294;14.480;2023-12-20T02:59:01;5.10;;;4.90;;
12689;SDS011;6409;56.294;14.480;2023-12-20T03:01:30;4.70;;;4.50;;
12689;SDS011;6409;56.294;14.480;2023-12-20T03:03:59;5.10;;;4.90;;
12689;SDS011;6409;56.294;14.480;2023-12-20T03:06:26;5.20;;;5.00;;
12689;SDS011;6409;56.294;14.480;2023-12-20T03:08:53;5.07;;;4.87;;
12689;SDS011;6409;56.294;14.480;2023-12-20T03:11:20;5.13;;;4.90;;
12689;SDS011;6409;56.294;14.480;2023-12-20T03:13:49;4.80;;;4.60;;
12689;SDS011;6409;56.294;14.480;2023-12-20T03:16:16;5.10;;;4.80;;
12689;SDS011;6409;56.294;14.480;2023-12-20T03:18:43;4.73;;;4.50;;
12689;SDS011;6409;56.294;14.480;2023-12-20T03:21:10;4.80;;;4.60;;
12689;SDS011;6409;56.294;14.480;2023-12-20T03:23:38;5.13;;;4.93;;
12689;SDS011;6409;56.294;14.480;2023-12-20T03:26:06;4.90;;;4.70;;
12689;SDS011;6409;56.294;14.480;2023-12-20T03:28:34;4.60;;;4.40;;
12689;SDS011;6409;56.294;14.480;2023-12-20T03:31:02;4.70;;;4.50;;
12689;SDS011;6409;56.294;14.480;2023-12-20T03:33:30;4.57;;;4.37;;
12689;SDS011;6409;56.294;14.480;2023-12-20T03:35:57;5.10;;;4.90;;
12689;SDS011;6409;56.294;14.480;2023-12-20T03:38:24;5.00;;;4.80;;
12689;SDS011;6409;56.294;14.480;2023-12-20T03:40:51;5.00;;;4.80;;
12689;SDS011;6409;56.294;14.480;2023-12-20T03:43:18;4.70;;;4.50;;
12689;SDS011;6409;56.294;14.480;2023-12-20T03:45:45;4.73;;;4.53;;
12689;SDS011;6409;56.294;14.480;2023-12-20T03:48:13;4.90;;;4.70;;
12689;SDS011;6409;56.294;14.480;2023-12-20T03:50:41;5.10;;;4.90;;
12689;SDS011;6409;56.294;14.480;2023-12-20T03:53:08;5.27;;;4.97;;
12689;SDS011;6409;56.294;14.480;2023-12-20T03:55:35;4.70;;;4.50;;
12689;SDS011;6409;56.294;14.480;2023-12-20T03:58:02;4.97;;;4.77;;
12689;SDS011;6409;56.294;14.480;2023-12-20T04:00:30;4.87;;;4.67;;
12689;SDS011;6409;56.294;14.480;2023-12-20T04:02:57;4.90;;;4.70;;
12689;SDS011;6409;56.294;14.480;2023-12-20T04:05:25;5.10;;;4.90;;
12689;SDS011;6409;56.294;14.480;2023-12-20T04:07:52;4.40;;;4.20;;
12689;SDS011;6409;56.294;14.480;2023-12-20T04:10:19;4.90;;;4.70;;
12689;SDS011;6409;56.294;14.480;2023-12-20T04:12:47;4.60;;;4.40;;
12689;SDS011;6409;56.294;14.480;2023-12-20T04:15:14;4.43;;;4.23;;
12689;SDS011;6409;56.294;14.480;2023-12-20T04:17:41;4.20;;;4.10;;
12689;SDS011;6409;56.294;14.480;2023-12-20T04:20:08;4.60;;;4.40;;
12689;SDS011;6409;56.294;14.480;2023-12-20T04:22:38;4.53;;;4.33;;
12689;SDS011;6409;56.294;14.480;2023-12-20T04:25:05;4.50;;;4.30;;
12689;SDS011;6409;56.294;14.480;2023-12-20T04:27:33;4.40;;;4.20;;
12689;SDS011;6409;56.294;14.480;2023-12-20T04:30:00;4.40;;;4.20;;
12689;SDS011;6409;56.294;14.480;2023-12-20T04:32:27;4.90;;;4.70;;
12689;SDS011;6409;56.294;14.480;2023-12-20T04:34:54;4.60;;;4.40;;
12689;SDS011;6409;56.294;14.480;2023-12-20T04:37:21;4.60;;;4.40;;
12689;SDS011;6409;56.294;14.480;2023-12-20T04:39:50;4.20;;;4.10;;
12689;SDS011;6409;56.294;14.480;2023-12-20T04:42:17;4.20;;;4.10;;
12689;SDS011;6409;56.294;14.480;2023-12-20T04:44:44;4.50;;;4.30;;
12689;SDS011;6409;56.294;14.480;2023-12-20T04:47:11;4.50;;;4.30;;
12689;SDS011;6409;56.294;14.480;2023-12-20T04:49:38;4.83;;;4.63;;
12689;SDS011;6409;56.294;14.480;2023-12-20T04:52:05;4.43;;;4.23;;
12689;SDS011;6409;56.294;14.480;2023-12-20T04:54:32;4.83;;;4.50;;
12689;SDS011;6409;56.294;14.480;2023-12-20T04:57:01;4.40;;;4.20;;
12689;SDS011;6409;56.294;14.480;2023-12-20T04:59:28;4.80;;;4.60;;
12689;SDS011;6409;56.294;14.480;2023-12-20T05:01:56;5.07;;;4.87;;
12689;SDS011;6409;56.294;14.480;2023-12-20T05:04:23;4.60;;;4.40;;
12689;SDS011;6409;56.294;14.480;2023-12-20T05:06:50;4.60;;;4.40;;
12689;SDS011;6409;56.294;14.480;2023-12-20T05:09:17;4.77;;;4.57;;
12689;SDS011;6409;56.294;14.480;2023-12-20T05:11:44;4.90;;;4.70;;
12689;SDS011;6409;56.294;14.480;2023-12-20T05:14:13;4.70;;;4.40;;
12689;SDS011;6409;56.294;14.480;2023-12-20T05:16:40;4.50;;;4.30;;
12689;SDS011;6409;56.294;14.480;2023-12-20T05:19:07;4.37;;;4.10;;
12689;SDS011;6409;56.294;14.480;2023-12-20T05:21:34;4.50;;;4.30;;
12689;SDS011;6409;56.294;14.480;2023-12-20T05:24:02;4.60;;;4.40;;
12689;SDS011;6409;56.294;14.480;2023-12-20T05:26:29;4.50;;;4.30;;
12689;SDS011;6409;56.294;14.480;2023-12-20T05:28:56;5.23;;;4.93;;
12689;SDS011;6409;56.294;14.480;2023-12-20T05:31:24;5.00;;;4.80;;
12689;SDS011;6409;56.294;14.480;2023-12-20T05:33:52;4.60;;;4.40;;
12689;SDS011;6409;56.294;14.480;2023-12-20T05:36:19;4.10;;;4.00;;
12689;SDS011;6409;56.294;14.480;2023-12-20T05:38:46;4.10;;;4.00;;
12689;SDS011;6409;56.294;14.480;2023-12-20T05:41:13;4.10;;;3.90;;
12689;SDS011;6409;56.294;14.480;2023-12-20T05:43:40;4.37;;;4.17;;
12689;SDS011;6409;56.294;14.480;2023-12-20T05:46:09;3.90;;;3.80;;
12689;SDS011;6409;56.294;14.480;2023-12-20T05:48:38;4.20;;;4.10;;
12689;SDS011;6409;56.294;14.480;2023-12-20T05:51:05;4.50;;;4.30;;
12689;SDS011;6409;56.294;14.480;2023-12-20T05:53:33;4.70;;;4.40;;
12689;SDS011;6409;56.294;14.480;2023-12-20T05:56:00;4.93;;;4.70;;
12689;SDS011;6409;56.294;14.480;2023-12-20T05:58:27;4.13;;;3.97;;
12689;SDS011;6409;56.294;14.480;2023-12-20T06:00:54;3.93;;;3.83;;
12689;SDS011;6409;56.294;14.480;2023-12-20T06:03:21;4.20;;;4.10;;
12689;SDS011;6409;56.294;14.480;2023-12-20T06:05:50;4.40;;;4.20;;
12689;SDS011;6409;56.294;14.480;2023-12-20T06:08:18;4.60;;;4.40;;
12689;SDS011;6409;56.294;14.480;2023-12-20T06:10:45;4.80;;;4.50;;
12689;SDS011;6409;56.294;14.480;2023-12-20T06:13:13;4.70;;;4.50;;
12689;SDS011;6409;56.294;14.480;2023-12-20T06:15:40;4.30;;;4.10;;
12689;SDS011;6409;56.294;14.480;2023-12-20T06:18:07;4.00;;;3.87;;
12689;SDS011;6409;56.294;14.480;2023-12-20T06:20:35;3.90;;;3.80;;
12689;SDS011;6409;56.294;14.480;2023-12-20T06:23:04;4.70;;;4.50;;
12689;SDS011;6409;56.294;14.480;2023-12-20T06:25:31;4.13;;;3.97;;
12689;SDS011;6409;56.294;14.480;2023-12-20T06:27:58;3.90;;;3.80;;
12689;SDS011;6409;56.294;14.480;2023-12-20T06:30:25;4.40;;;4.10;;
12689;SDS011;6409;56.294;14.480;2023-12-20T06:32:53;5.00;;;4.80;;
12689;SDS011;6409;56.294;14.480;2023-12-20T06:35:22;4.17;;;3.97;;
12689;SDS011;6409;56.294;14.480;2023-12-20T06:37:49;4.03;;;3.83;;
12689;SDS011;6409;56.294;14.480;2023-12-20T06:40:19;4.73;;;4.33;;
12689;SDS011;6409;56.294;14.480;2023-12-20T06:42:46;4.40;;;4.20;;
12689;SDS011;6409;56.294;14.480;2023-12-20T06:45:13;3.70;;;3.60;;
12689;SDS011;6409;56.294;14.480;2023-12-20T06:47:40;3.90;;;3.80;;
12689;SDS011;6409;56.294;14.480;2023-12-20T06:50:07;3.70;;;3.50;;
12689;SDS011;6409;56.294;14.480;2023-12-20T06:52:34;3.77;;;3.57;;
12689;SDS011;6409;56.294;14.480;2023-12-20T06:55:01;3.50;;;3.33;;
12689;SDS011;6409;56.294;14.480;2023-12-20T06:57:30;3.10;;;3.00;;
12689;SDS011;6409;56.294;14.480;2023-12-20T06:59:58;3.07;;;2.97;;
12689;SDS011;6409;56.294;14.480;2023-12-20T07:02:25;3.27;;;3.17;;
12689;SDS011;6409;56.294;14.480;2023-12-20T07:04:55;3.53;;;3.43;;
12689;SDS011;6409;56.294;14.480;2023-12-20T07:07:23;3.60;;;3.30;;
12689;SDS011;6409;56.294;14.480;2023-12-20T07:09:52;3.10;;;3.00;;
12689;SDS011;6409;56.294;14.480;2023-12-20T07:12:20;3.20;;;3.10;;
12689;SDS011;6409;56.294;14.480;2023-12-20T07:14:50;3.60;;;3.50;;
12689;SDS011;6409;56.294;14.480;2023-12-20T07:17:18;3.57;;;3.37;;
12689;SDS011;6409;56.294;14.480;2023-12-20T07:19:46;3.43;;;3.33;;
12689;SDS011;6409;56.294;14.480;2023-12-20T07:22:15;3.60;;;3.40;;
12689;SDS011;6409;56.294;14.480;2023-12-20T07:24:43;3.50;;;3.30;;
12689;SDS011;6409;56.294;14.480;2023-12-20T07:27:11;3.60;;;3.40;;
12689;SDS011;6409;56.294;14.480;2023-12-20T07:29:39;3.87;;;3.77;;
12689;SDS011;6409;56.294;14.480;2023-12-20T07:32:09;3.60;;;3.50;;
12689;SDS011;6409;56.294;14.480;2023-12-20T07:34:37;3.70;;;3.50;;
12689;SDS011;6409;56.294;14.480;2023-12-20T07:37:06;3.50;;;3.40;;
12689;SDS011;6409;56.294;14.480;2023-12-20T07:39:35;3.67;;;3.57;;
12689;SDS011;6409;56.294;14.480;2023-12-20T07:42:05;3.47;;;3.27;;
12689;SDS011;6409;56.294;14.480;2023-12-20T07:44:33;3.60;;;3.50;;
12689;SDS011;6409;56.294;14.480;2023-12-20T07:47:02;3.33;;;3.23;;
12689;SDS011;6409;56.294;14.480;2023-12-20T07:49:32;3.80;;;3.60;;
12689;SDS011;6409;56.294;14.480;2023-12-20T07:52:01;4.00;;;3.80;;
12689;SDS011;6409;56.294;14.480;2023-12-20T07:54:29;3.70;;;3.60;;
12689;SDS011;6409;56.294;14.480;2023-12-20T07:56:57;3.47;;;3.37;;
12689;SDS011;6409;56.294;14.480;2023-12-20T07:59:26;3.70;;;3.60;;
12689;SDS011;6409;56.294;14.480;2023-12-20T08:01:54;3.70;;;3.60;;
12689;SDS011;6409;56.294;14.480;2023-12-20T08:04:22;3.30;;;3.20;;
12689;SDS011;6409;56.294;14.480;2023-12-20T08:06:52;3.40;;;3.30;;
12689;SDS011;6409;56.294;14.480;2023-12-20T08:09:20;3.93;;;3.83;;
12689;SDS011;6409;56.294;14.480;2023-12-20T08:11:49;4.10;;;4.00;;
12689;SDS011;6409;56.294;14.480;2023-12-20T08:14:17;4.47;;;4.27;;
12689;SDS011;6409;56.294;14.480;2023-12-20T08:16:46;4.30;;;4.10;;
12689;SDS011;6409;56.294;14.480;2023-12-20T08:19:14;3.90;;;3.80;;
12689;SDS011;6409;56.294;14.480;2023-12-20T08:21:42;4.03;;;3.93;;
12689;SDS011;6409;56.294;14.480;2023-12-20T08:24:12;4.30;;;4.10;;
12689;SDS011;6409;56.294;14.480;2023-12-20T08:26:39;4.20;;;4.00;;
12689;SDS011;6409;56.294;14.480;2023-12-20T08:29:06;3.60;;;3.50;;
12689;SDS011;6409;56.294;14.480;2023-12-20T08:31:33;3.50;;;3.40;;
12689;SDS011;6409;56.294;14.480;2023-12-20T08:34:00;4.03;;;3.93;;
12689;SDS011;6409;56.294;14.480;2023-12-20T08:36:27;3.80;;;3.70;;
12689;SDS011;6409;56.294;14.480;2023-12-20T08:38:55;4.20;;;4.10;;
12689;SDS011;6409;56.294;14.480;2023-12-20T08:41:23;3.70;;;3.60;;
12689;SDS011;6409;56.294;14.480;2023-12-20T08:43:50;3.60;;;3.50;;
12689;SDS011;6409;56.294;14.480;2023-12-20T08:46:18;3.50;;;3.40;;
12689;SDS011;6409;56.294;14.480;2023-12-20T08:48:46;3.70;;;3.60;;
12689;SDS011;6409;56.294;14.480;2023-12-20T08:51:13;4.13;;;3.93;;
12689;SDS011;6409;56.294;14.480;2023-12-20T08:53:40;4.00;;;3.90;;
12689;SDS011;6409;56.294;14.480;2023-12-20T08:56:10;3.97;;;3.77;;
12689;SDS011;6409;56.294;14.480;2023-12-20T08:58:38;4.17;;;4.07;;
12689;SDS011;6409;56.294;14.480;2023-12-20T09:01:05;4.27;;;4.07;;
12689;SDS011;6409;56.294;14.480;2023-12-20T09:03:33;4.37;;;4.17;;
12689;SDS011;6409;56.294;14.480;2023-12-20T09:06:00;3.90;;;3.80;;
12689;SDS011;6409;56.294;14.480;2023-12-20T09:08:27;3.80;;;3.70;;
12689;SDS011;6409;56.294;14.480;2023-12-20T09:10:54;3.90;;;3.80;;
12689;SDS011;6409;56.294;14.480;2023-12-20T09:13:22;4.13;;;4.03;;
12689;SDS011;6409;56.294;14.480;2023-12-20T09:15:54;3.80;;;3.70;;
12689;SDS011;6409;56.294;14.480;2023-12-20T09:18:21;4.30;;;4.10;;
12689;SDS011;6409;56.294;14.480;2023-12-20T09:20:48;4.10;;;3.90;;
12689;SDS011;6409;56.294;14.480;2023-12-20T09:23:15;4.03;;;3.83;;
12689;SDS011;6409;56.294;14.480;2023-12-20T09:25:43;4.10;;;4.00;;
12689;SDS011;6409;56.294;14.480;2023-12-20T09:28:10;4.20;;;4.10;;
12689;SDS011;6409;56.294;14.480;2023-12-20T09:30:37;4.40;;;4.20;;
12689;SDS011;6409;56.294;14.480;2023-12-20T09:33:06;4.60;;;4.40;;
12689;SDS011;6409;56.294;14.480;2023-12-20T09:35:34;4.60;;;4.40;;
12689;SDS011;6409;56.294;14.480;2023-12-20T09:38:01;4.20;;;4.00;;
12689;SDS011;6409;56.294;14.480;2023-12-20T09:40:28;4.30;;;4.10;;
12689;SDS011;6409;56.294;14.480;2023-12-20T09:42:56;4.30;;;4.10;;
12689;SDS011;6409;56.294;14.480;2023-12-20T09:45:24;4.00;;;3.90;;
12689;SDS011;6409;56.294;14.480;2023-12-20T09:47:52;4.50;;;4.30;;
12689;SDS011;6409;56.294;14.480;2023-12-20T09:50:21;4.00;;;3.90;;
12689;SDS011;6409;56.294;14.480;2023-12-20T09:52:49;4.00;;;3.90;;
12689;SDS011;6409;56.294;14.480;2023-12-20T09:55:17;3.90;;;3.80;;
12689;SDS011;6409;56.294;14.480;2023-12-20T09:57:45;3.50;;;3.40;;
12689;SDS011;6409;56.294;14.480;2023-12-20T10:00:12;3.80;;;3.70;;
12689;SDS011;6409;56.294;14.480;2023-12-20T10:02:42;3.53;;;3.43;;
12689;SDS011;6409;56.294;14.480;2023-12-20T10:05:15;3.60;;;3.50;;
12689;SDS011;6409;56.294;14.480;2023-12-20T10:07:45;3.70;;;3.50;;
12689;SDS011;6409;56.294;14.480;2023-12-20T10:10:13;3.47;;;3.37;;
12689;SDS011;6409;56.294;14.480;2023-12-20T10:12:40;3.30;;;3.20;;
12689;SDS011;6409;56.294;14.480;2023-12-20T10:15:07;3.80;;;3.70;;
12689;SDS011;6409;56.294;14.480;2023-12-20T10:17:35;3.73;;;3.63;;
12689;SDS011;6409;56.294;14.480;2023-12-20T10:20:03;3.90;;;3.80;;
12689;SDS011;6409;56.294;14.480;2023-12-20T10:22:35;3.70;;;3.60;;
12689;SDS011;6409;56.294;14.480;2023-12-20T10:25:04;3.80;;;3.70;;
12689;SDS011;6409;56.294;14.480;2023-12-20T10:27:32;3.80;;;3.70;;
12689;SDS011;6409;56.294;14.480;2023-12-20T10:29:59;3.80;;;3.70;;
12689;SDS011;6409;56.294;14.480;2023-12-20T10:32:27;3.50;;;3.40;;
12689;SDS011;6409;56.294;14.480;2023-12-20T10:34:54;3.80;;;3.70;;
12689;SDS011;6409;56.294;14.480;2023-12-20T10:37:22;4.03;;;3.90;;
12689;SDS011;6409;56.294;14.480;2023-12-20T10:39:49;3.70;;;3.60;;
12689;SDS011;6409;56.294;14.480;2023-12-20T10:42:22;3.50;;;3.40;;
12689;SDS011;6409;56.294;14.480;2023-12-20T10:44:52;4.00;;;3.90;;
12689;SDS011;6409;56.294;14.480;2023-12-20T10:47:20;3.60;;;3.50;;
12689;SDS011;6409;56.294;14.480;2023-12-20T10:49:47;4.00;;;3.80;;
12689;SDS011;6409;56.294;14.480;2023-12-20T10:52:14;3.50;;;3.40;;
12689;SDS011;6409;56.294;14.480;2023-12-20T10:54:41;3.60;;;3.50;;
12689;SDS011;6409;56.294;14.480;2023-12-20T10:57:08;3.73;;;3.63;;
12689;SDS011;6409;56.294;14.480;2023-12-20T10:59:37;3.60;;;3.50;;
12689;SDS011;6409;56.294;14.480;2023-12-20T11:02:04;3.70;;;3.60;;
12689;SDS011;6409;56.294;14.480;2023-12-20T11:04:35;3.90;;;3.80;;
12689;SDS011;6409;56.294;14.480;2023-12-20T11:07:08;3.60;;;3.50;;
12689;SDS011;6409;56.294;14.480;2023-12-20T11:09:43;3.70;;;3.60;;
12689;SDS011;6409;56.294;14.480;2023-12-20T11:12:15;3.90;;;3.80;;
12689;SDS011;6409;56.294;14.480;2023-12-20T11:14:46;3.70;;;3.60;;
12689;SDS011;6409;56.294;14.480;2023-12-20T11:17:14;3.70;;;3.60;;
12689;SDS011;6409;56.294;14.480;2023-12-20T11:22:31;3.80;;;3.60;;
12689;SDS011;6409;56.294;14.480;2023-12-20T11:25:02;3.70;;;3.50;;
12689;SDS011;6409;56.294;14.480;2023-12-20T11:27:31;3.40;;;3.30;;
12689;SDS011;6409;56.294;14.480;2023-12-20T11:30:00;3.47;;;3.37;;
12689;SDS011;6409;56.294;14.480;2023-12-20T11:32:31;3.50;;;3.40;;
12689;SDS011;6409;56.294;14.480;2023-12-20T11:35:00;4.40;;;4.20;;
12689;SDS011;6409;56.294;14.480;2023-12-20T11:37:31;4.10;;;4.00;;
12689;SDS011;6409;56.294;14.480;2023-12-20T11:40:00;3.80;;;3.70;;
12689;SDS011;6409;56.294;14.480;2023-12-20T11:42:32;3.70;;;3.60;;
12689;SDS011;6409;56.294;14.480;2023-12-20T11:45:01;3.60;;;3.50;;
12689;SDS011;6409;56.294;14.480;2023-12-20T11:47:29;4.30;;;4.10;;
12689;SDS011;6409;56.294;14.480;2023-12-20T11:49:57;4.00;;;3.80;;
12689;SDS011;6409;56.294;14.480;2023-12-20T11:52:25;3.97;;;3.87;;
12689;SDS011;6409;56.294;14.480;2023-12-20T11:54:52;4.00;;;3.90;;
12689;SDS011;6409;56.294;14.480;2023-12-20T11:57:20;3.83;;;3.73;;
12689;SDS011;6409;56.294;14.480;2023-12-20T11:59:47;3.90;;;3.80;;
12689;SDS011;6409;56.294;14.480;2023-12-20T12:02:15;3.77;;;3.67;;
12689;SDS011;6409;56.294;14.480;2023-12-20T12:04:42;3.80;;;3.70;;
12689;SDS011;6409;56.294;14.480;2023-12-20T12:07:09;3.93;;;3.83;;
12689;SDS011;6409;56.294;14.480;2023-12-20T12:09:37;4.20;;;3.80;;
12689;SDS011;6409;56.294;14.480;2023-12-20T12:12:04;3.90;;;3.80;;
12689;SDS011;6409;56.294;14.480;2023-12-20T12:14:32;3.50;;;3.40;;
12689;SDS011;6409;56.294;14.480;2023-12-20T12:17:00;3.60;;;3.50;;
12689;SDS011;6409;56.294;14.480;2023-12-20T12:19:29;3.60;;;3.50;;
12689;SDS011;6409;56.294;14.480;2023-12-20T12:22:06;3.60;;;3.50;;
12689;SDS011;6409;56.294;14.480;2023-12-20T12:24:37;3.80;;;3.70;;
12689;SDS011;6409;56.294;14.480;2023-12-20T12:27:05;3.50;;;3.40;;
12689;SDS011;6409;56.294;14.480;2023-12-20T12:29:32;3.80;;;3.70;;
12689;SDS011;6409;56.294;14.480;2023-12-20T12:32:00;3.40;;;3.30;;
12689;SDS011;6409;56.294;14.480;2023-12-20T12:34:28;3.60;;;3.50;;
12689;SDS011;6409;56.294;14.480;2023-12-20T12:36:56;3.87;;;3.77;;
12689;SDS011;6409;56.294;14.480;2023-12-20T12:39:23;4.00;;;3.90;;
12689;SDS011;6409;56.294;14.480;2023-12-20T12:41:51;4.10;;;4.00;;
12689;SDS011;6409;56.294;14.480;2023-12-20T12:44:18;4.00;;;3.90;;
12689;SDS011;6409;56.294;14.480;2023-12-20T12:46:47;4.00;;;3.90;;
12689;SDS011;6409;56.294;14.480;2023-12-20T12:49:16;4.27;;;4.07;;
12689;SDS011;6409;56.294;14.480;2023-12-20T12:51:44;3.80;;;3.70;;
12689;SDS011;6409;56.294;14.480;2023-12-20T12:54:12;3.77;;;3.67;;
12689;SDS011;6409;56.294;14.480;2023-12-20T12:56:41;4.10;;;4.00;;
12689;SDS011;6409;56.294;14.480;2023-12-20T12:59:08;4.00;;;3.90;;
12689;SDS011;6409;56.294;14.480;2023-12-20T13:01:36;4.30;;;4.10;;
12689;SDS011;6409;56.294;14.480;2023-12-20T13:04:04;4.50;;;4.30;;
12689;SDS011;6409;56.294;14.480;2023-12-20T13:06:35;4.10;;;4.00;;
12689;SDS011;6409;56.294;14.480;2023-12-20T13:09:04;3.90;;;3.80;;
12689;SDS011;6409;56.294;14.480;2023-12-20T13:11:31;4.50;;;4.30;;
12689;SDS011;6409;56.294;14.480;2023-12-20T13:14:00;4.40;;;4.20;;
12689;SDS011;6409;56.294;14.480;2023-12-20T13:16:28;3.90;;;3.80;;
12689;SDS011;6409;56.294;14.480;2023-12-20T13:18:56;4.30;;;4.10;;
12689;SDS011;6409;56.294;14.480;2023-12-20T13:21:25;4.50;;;4.30;;
12689;SDS011;6409;56.294;14.480;2023-12-20T13:23:52;4.50;;;4.30;;
12689;SDS011;6409;56.294;14.480;2023-12-20T13:26:21;4.60;;;4.40;;
12689;SDS011;6409;56.294;14.480;2023-12-20T13:28:48;4.40;;;4.20;;
12689;SDS011;6409;56.294;14.480;2023-12-20T13:31:15;3.80;;;3.70;;
12689;SDS011;6409;56.294;14.480;2023-12-20T13:33:42;3.70;;;3.60;;
12689;SDS011;6409;56.294;14.480;2023-12-20T13:36:09;4.00;;;3.90;;
12689;SDS011;6409;56.294;14.480;2023-12-20T13:38:36;3.80;;;3.70;;
12689;SDS011;6409;56.294;14.480;2023-12-20T13:41:03;3.97;;;3.87;;
12689;SDS011;6409;56.294;14.480;2023-12-20T13:43:32;4.00;;;3.90;;
12689;SDS011;6409;56.294;14.480;2023-12-20T13:46:00;3.90;;;3.80;;
12689;SDS011;6409;56.294;14.480;2023-12-20T13:48:27;4.23;;;4.10;;
12689;SDS011;6409;56.294;14.480;2023-12-20T13:50:54;4.10;;;4.00;;
12689;SDS011;6409;56.294;14.480;2023-12-20T13:53:22;4.50;;;4.30;;
12689;SDS011;6409;56.294;14.480;2023-12-20T13:55:49;4.90;;;4.70;;
12689;SDS011;6409;56.294;14.480;2023-12-20T13:58:16;4.40;;;4.20;;
12689;SDS011;6409;56.294;14.480;2023-12-20T14:00:45;3.90;;;3.80;;
12689;SDS011;6409;56.294;14.480;2023-12-20T14:03:13;3.50;;;3.40;;
12689;SDS011;6409;56.294;14.480;2023-12-20T14:05:40;3.43;;;3.33;;
12689;SDS011;6409;56.294;14.480;2023-12-20T14:08:07;3.33;;;3.23;;
12689;SDS011;6409;56.294;14.480;2023-12-20T14:10:35;3.17;;;3.07;;
12689;SDS011;6409;56.294;14.480;2023-12-20T14:13:03;3.20;;;3.10;;
12689;SDS011;6409;56.294;14.480;2023-12-20T14:15:31;3.33;;;3.23;;
12689;SDS011;6409;56.294;14.480;2023-12-20T14:18:04;3.50;;;3.40;;
12689;SDS011;6409;56.294;14.480;2023-12-20T14:20:33;3.60;;;3.50;;
12689;SDS011;6409;56.294;14.480;2023-12-20T14:23:00;3.60;;;3.50;;
12689;SDS011;6409;56.294;14.480;2023-12-20T14:25:27;3.57;;;3.47;;
12689;SDS011;6409;56.294;14.480;2023-12-20T14:27:54;3.50;;;3.40;;
12689;SDS011;6409;56.294;14.480;2023-12-20T14:30:22;3.30;;;3.20;;
12689;SDS011;6409;56.294;14.480;2023-12-20T14:32:49;3.20;;;3.10;;
12689;SDS011;6409;56.294;14.480;2023-12-20T14:35:18;3.30;;;3.20;;
12689;SDS011;6409;56.294;14.480;2023-12-20T14:37:45;3.10;;;3.00;;
12689;SDS011;6409;56.294;14.480;2023-12-20T14:40:13;2.90;;;2.80;;
12689;SDS011;6409;56.294;14.480;2023-12-20T14:42:41;2.67;;;2.57;;
12689;SDS011;6409;56.294;14.480;2023-12-20T14:45:09;2.90;;;2.80;;
12689;SDS011;6409;56.294;14.480;2023-12-20T14:47:36;3.20;;;3.10;;
12689;SDS011;6409;56.294;14.480;2023-12-20T14:50:03;3.10;;;3.00;;
12689;SDS011;6409;56.294;14.480;2023-12-20T14:52:33;3.07;;;2.97;;
12689;SDS011;6409;56.294;14.480;2023-12-20T14:55:00;2.90;;;2.80;;